Flight Track Log - Related Links

Times and Time Zones

All times are in EDT time to prevent confusion due to time zone crossing. See the SWA2278 flight status page for this flight to view local times or setup timezone preferences in your user account.

Time Position Orientation Groundspeed Altitude Reporting Facility
EDT Latitude Longitude Course Direction KTS MPH feet Rate Location/Type
Mon 02:01:34 PM 36.0667 -86.6667 171° South 202 232 2,800  Level Nashville TRACON
Mon 02:02:34 PM 36.0500 -86.6000 107° East 270 311 4,000 706 Climbing Nashville TRACON
Mon 02:03:16 PM 36.0833 -86.5333 58° Northeast 289 333 4,000 1,333 Level Nashville TRACON
Mon 02:04:22 PM 36.1000 -86.4333 78° East 291 335 6,400 2,513 Climbing Nashville TRACON
Mon 02:05:56 PM 36.1458 -86.2806 70° East 337 388 10,700 2,571 Climbing Memphis Center
Mon 02:06:56 PM 36.1772 -86.1633 72° East 343 395 13,000 2,400 Climbing Memphis Center
Mon 02:07:56 PM 36.2167 -86.0378 69° East 368 423 15,500 2,400 Climbing Memphis Center
Mon 02:08:56 PM 36.2728 -85.9139 61° Northeast 394 453 17,800 2,176 Climbing Memphis Center
Mon 02:10:58 PM 36.3867 -85.6628 61° Northeast 421 484 22,100 2,098 Climbing Indianapolis Center
Mon 02:11:59 PM 36.4508 -85.5281 59° Northeast 445 512 24,200 1,902 Climbing Indianapolis Center
Mon 02:13:01 PM 36.5144 -85.3939 59° Northeast 447 514 26,000 1,659 Climbing Indianapolis Center
Mon 02:14:02 PM 36.5806 -85.2564 59° Northeast 458 527 27,600 1,561 Climbing Indianapolis Center
Mon 02:15:04 PM 36.6644 -85.0883 58° Northeast 472 543 29,200 1,512 Climbing Indianapolis Center
Mon 02:16:05 PM 36.7350 -84.9475 58° Northeast 476 548 30,700 1,463 Climbing Indianapolis Center
Mon 02:17:07 PM 36.8033 -84.8069 59° Northeast 474 545 32,200 1,258 Climbing Indianapolis Center
Mon 02:18:09 PM 36.8561 -84.6522 67° East 479 551 33,300 1,366 Climbing Indianapolis Center
Mon 02:19:10 PM 36.8953 -84.5050 72° East 480 552 35,000 829 Climbing Indianapolis Center
Mon 02:20:12 PM 36.9467 -84.3225 71° East 477 549 35,000  Level Indianapolis Center
Mon 02:21:13 PM 36.9914 -84.1622 71° East 485 558 35,000  Level Indianapolis Center
Mon 02:22:15 PM 37.0353 -84.0025 71° East 485 558 35,000  Level Indianapolis Center
Mon 02:23:17 PM 37.0794 -83.8425 71° East 486 559 35,000  Level Indianapolis Center
Mon 02:24:18 PM 37.1239 -83.6822 71° East 485 558 35,000  Level Indianapolis Center
Mon 02:25:20 PM 37.1661 -83.5225 72° East 482 555 35,000  Level Indianapolis Center
Mon 02:26:21 PM 37.2089 -83.3619 71° East 480 552 35,000  Level Indianapolis Center
Mon 02:27:23 PM 37.2525 -83.2008 71° East 484 557 35,000  Level Indianapolis Center
Mon 02:28:25 PM 37.3008 -83.0150 72° East 477 549 35,000  Level Indianapolis Center
Mon 02:29:26 PM 37.3428 -82.8556 72° East 475 547 35,000  Level Indianapolis Center
Mon 02:30:28 PM 37.3847 -82.6958 72° East 477 549 35,000  Level Indianapolis Center
Mon 02:31:30 PM 37.4267 -82.5375 72° East 476 548 35,000  Level Indianapolis Center
Mon 02:32:32 PM 37.4678 -82.3775 72° East 477 549 35,000  Level Indianapolis Center
Mon 02:33:33 PM 37.5092 -82.2147 72° East 485 558 35,000  Level Indianapolis Center
Mon 02:34:35 PM 37.5514 -82.0531 72° East 485 558 35,000  Level Indianapolis Center
Mon 02:35:37 PM 37.5922 -81.8906 72° East 485 558 35,000  Level Indianapolis Center
Mon 02:36:39 PM 37.6392 -81.6983 73° East 489 563 35,000  Level Indianapolis Center
Mon 02:37:40 PM 37.6792 -81.5353 73° East 487 560 35,000  Level Indianapolis Center
Mon 02:38:42 PM 37.7206 -81.3725 72° East 484 557 35,000  Level Indianapolis Center
Mon 02:39:44 PM 37.7597 -81.2150 72° East 484 557 35,000  Level Indianapolis Center
Mon 02:40:38 PM 37.7878 -81.0578 77° East 464 534 35,000  Level Washington Center
Mon 02:41:38 PM 37.8058 -80.8933 82° East 470 541 35,000  Level Washington Center
Mon 02:42:38 PM 37.8256 -80.7264 81° East 475 547 35,000  Level Washington Center
Mon 02:43:38 PM 37.8586 -80.5842 74° East 480 552 35,000  Level Washington Center
Mon 02:44:38 PM 37.9108 -80.4350 66° East 467 537 35,000  Level Washington Center
Mon 02:45:38 PM 37.9606 -80.2853 67° East 461 531 35,000  Level Washington Center
Mon 02:46:38 PM 38.0100 -80.1356 67° East 461 531 35,000  Level Washington Center
Mon 02:47:38 PM 38.0664 -79.9675 67° East 466 536 35,000  Level Washington Center
Mon 02:48:38 PM 38.1156 -79.8172 67° East 466 536 35,000  Level Washington Center
Mon 02:49:38 PM 38.1644 -79.6669 67° East 466 536 35,000  Level Washington Center
Mon 02:50:38 PM 38.2153 -79.5189 66° East 466 536 35,000  Level Washington Center
Mon 02:51:38 PM 38.2642 -79.3656 68° East 466 536 35,000  Level Washington Center
Mon 02:52:38 PM 38.2997 -79.2244 72° East 466 536 35,000 -2,600 Level Washington Center
Mon 02:53:38 PM 38.3419 -79.0650 71° East 466 536 29,800 -3,850 Descending Washington Center
Mon 02:54:38 PM 38.3839 -78.9081 71° East 466 536 27,300 -1,400 Descending Washington Center
Mon 02:55:38 PM 38.4178 -78.7372 76° East 461 531 27,000 -150 Descending Washington Center
Mon 02:56:38 PM 38.4569 -78.5878 71° East 450 518 27,000  Level Washington Center
Mon 02:57:38 PM 38.4983 -78.4303 71° East 450 518 27,000 -900 Level Washington Center
Mon 02:58:38 PM 38.5375 -78.2750 72° East 456 525 25,200 -2,100 Descending Washington Center
Mon 02:59:38 PM 38.5761 -78.1225 72° East 451 519 22,800 -2,250 Descending Washington Center
Mon 03:00:38 PM 38.6125 -77.9803 72° East 441 507 20,700 -1,900 Descending Washington Center
Mon 03:01:38 PM 38.6422 -77.8350 75° East 427 491 19,000 -850 Descending Washington Center
Mon 03:02:38 PM 38.6511 -77.6944 85° East 411 473 19,000 -252 Level Washington Center
Mon 03:03:37 PM 38.6667 -77.5500 82° East 409 471 18,500 -1,361 Descending Potomac TRACON
Mon 03:04:37 PM 38.6667 -77.4167 90° East 408 470 16,300 -1,350 Descending Potomac TRACON
Mon 03:05:37 PM 38.6833 -77.2667 82° East 392 451 15,800 -1,316 Descending Potomac TRACON
Mon 03:06:31 PM 38.6833 -77.1333 90° East 387 445 13,800 -2,150 Descending Potomac TRACON
Mon 03:07:37 PM 38.7000 -76.9833 82° East 370 426 11,500 -1,714 Descending Potomac TRACON
Mon 03:08:37 PM 38.7000 -76.8667 90° East 353 406 10,200 -1,250 Descending Potomac TRACON
Mon 03:09:37 PM 38.7000 -76.7500 90° East 315 362 9,000 -1,100 Descending Potomac TRACON
Mon 03:10:37 PM 38.7500 -76.6500 57° Northeast 319 367 8,000 -1,263 Descending Potomac TRACON
Mon 03:11:31 PM 38.7833 -76.5667 63° Northeast 313 360 6,600 -1,350 Descending Potomac TRACON
Mon 03:12:37 PM 38.8667 -76.5500 North 291 335 5,300 -1,100 Descending Potomac TRACON
Mon 03:13:31 PM 38.9333 -76.5833 339° North 285 328 4,400 -684 Descending Potomac TRACON
Mon 03:14:31 PM 38.9833 -76.6333 322° Northwest 267 307 4,000 -200 Descending Potomac TRACON
Mon 03:15:31 PM 39.0167 -76.7167 297° West 270 311 4,000 -149 Level Potomac TRACON
Mon 03:16:32 PM 39.0667 -76.7833 314° West 243 280 3,700 -496 Descending Potomac TRACON
Mon 03:17:32 PM 39.1000 -76.8500 303° West 241 277 3,000 -600 Descending Potomac TRACON
Mon 03:18:32 PM 39.1667 -76.8667 349° North 239 275 2,500 -400 Descending Potomac TRACON
Mon 03:19:32 PM 39.1833 -76.8167 67° East 180 207 2,200 -600 Descending Potomac TRACON
Mon 03:20:32 PM 39.1833 -76.7667 90° East 152 175 1,300 -850 Descending Potomac TRACON
Mon 03:21:32 PM 39.1833 -76.7000 90° East 143 165 500 -800 Descending Potomac TRACON
Mon 03:23:00 PM 39.1754 -76.6683 21° North  Level Estimated
Mon 03:30:00 PM 39.1754 -76.6683 North  Level Estimated
Mon 03:31:00 PM 39.1754 -76.6683 North  Level Estimated

Login

Don't have an account? Register now (free) for customized features, flight alerts, and more!